sensor_id;sensor_type;location;lat;lon;timestamp;P1;durP1;ratioP1;P2;durP2;ratioP2
15271;SDS011;7737;51.578;7.268;2023-03-14T00:00:04;5.63;;;2.67;;
15271;SDS011;7737;51.578;7.268;2023-03-14T00:02:33;6.13;;;2.40;;
15271;SDS011;7737;51.578;7.268;2023-03-14T00:04:59;3.88;;;2.08;;
15271;SDS011;7737;51.578;7.268;2023-03-14T00:07:27;5.57;;;2.47;;
15271;SDS011;7737;51.578;7.268;2023-03-14T00:09:58;5.25;;;2.33;;
15271;SDS011;7737;51.578;7.268;2023-03-14T00:12:26;6.38;;;2.95;;
15271;SDS011;7737;51.578;7.268;2023-03-14T00:14:53;8.48;;;2.85;;
15271;SDS011;7737;51.578;7.268;2023-03-14T00:17:19;5.95;;;2.30;;
15271;SDS011;7737;51.578;7.268;2023-03-14T00:19:46;5.35;;;2.70;;
15271;SDS011;7737;51.578;7.268;2023-03-14T00:22:14;7.00;;;3.10;;
15271;SDS011;7737;51.578;7.268;2023-03-14T00:24:41;6.70;;;3.17;;
15271;SDS011;7737;51.578;7.268;2023-03-14T00:27:07;5.72;;;2.72;;
15271;SDS011;7737;51.578;7.268;2023-03-14T00:29:35;6.75;;;2.10;;
15271;SDS011;7737;51.578;7.268;2023-03-14T00:32:02;7.18;;;2.35;;
15271;SDS011;7737;51.578;7.268;2023-03-14T00:34:29;4.97;;;2.53;;
15271;SDS011;7737;51.578;7.268;2023-03-14T00:36:56;6.15;;;2.35;;
15271;SDS011;7737;51.578;7.268;2023-03-14T00:39:22;6.13;;;2.40;;
15271;SDS011;7737;51.578;7.268;2023-03-14T00:41:49;4.03;;;2.20;;
15271;SDS011;7737;51.578;7.268;2023-03-14T00:44:15;5.50;;;2.15;;
15271;SDS011;7737;51.578;7.268;2023-03-14T00:46:43;4.85;;;1.95;;
15271;SDS011;7737;51.578;7.268;2023-03-14T00:49:10;6.53;;;2.00;;
15271;SDS011;7737;51.578;7.268;2023-03-14T00:51:37;5.93;;;2.00;;
15271;SDS011;7737;51.578;7.268;2023-03-14T00:54:03;6.53;;;1.98;;
15271;SDS011;7737;51.578;7.268;2023-03-14T00:56:30;5.45;;;2.00;;
15271;SDS011;7737;51.578;7.268;2023-03-14T00:58:57;6.13;;;1.90;;
15271;SDS011;7737;51.578;7.268;2023-03-14T01:01:23;6.38;;;2.17;;
15271;SDS011;7737;51.578;7.268;2023-03-14T01:03:52;4.70;;;1.70;;
15271;SDS011;7737;51.578;7.268;2023-03-14T01:06:20;8.52;;;1.52;;
15271;SDS011;7737;51.578;7.268;2023-03-14T01:08:48;4.93;;;1.70;;
15271;SDS011;7737;51.578;7.268;2023-03-14T01:11:16;6.38;;;1.33;;
15271;SDS011;7737;51.578;7.268;2023-03-14T01:13:43;3.78;;;1.40;;
15271;SDS011;7737;51.578;7.268;2023-03-14T01:16:11;3.88;;;1.42;;
15271;SDS011;7737;51.578;7.268;2023-03-14T01:18:38;5.03;;;1.10;;
15271;SDS011;7737;51.578;7.268;2023-03-14T01:21:10;4.25;;;1.00;;
15271;SDS011;7737;51.578;7.268;2023-03-14T01:23:38;4.88;;;1.08;;
15271;SDS011;7737;51.578;7.268;2023-03-14T01:26:08;3.20;;;0.98;;
15271;SDS011;7737;51.578;7.268;2023-03-14T01:28:35;2.47;;;0.90;;
15271;SDS011;7737;51.578;7.268;2023-03-14T01:31:02;2.20;;;1.00;;
15271;SDS011;7737;51.578;7.268;2023-03-14T01:33:29;1.98;;;0.80;;
15271;SDS011;7737;51.578;7.268;2023-03-14T01:35:55;3.30;;;0.90;;
15271;SDS011;7737;51.578;7.268;2023-03-14T01:38:23;2.58;;;0.80;;
15271;SDS011;7737;51.578;7.268;2023-03-14T01:40:49;3.03;;;0.80;;
15271;SDS011;7737;51.578;7.268;2023-03-14T01:43:17;2.85;;;0.90;;
15271;SDS011;7737;51.578;7.268;2023-03-14T01:49:01;2.58;;;0.70;;
15271;SDS011;7737;51.578;7.268;2023-03-14T01:51:33;3.80;;;0.90;;
15271;SDS011;7737;51.578;7.268;2023-03-14T01:54:08;4.80;;;0.82;;
15271;SDS011;7737;51.578;7.268;2023-03-14T01:56:38;3.33;;;0.90;;
15271;SDS011;7737;51.578;7.268;2023-03-14T01:59:08;4.10;;;0.95;;
15271;SDS011;7737;51.578;7.268;2023-03-14T02:01:36;4.88;;;0.93;;
15271;SDS011;7737;51.578;7.268;2023-03-14T02:04:07;4.07;;;0.95;;
15271;SDS011;7737;51.578;7.268;2023-03-14T02:06:37;5.22;;;1.20;;
15271;SDS011;7737;51.578;7.268;2023-03-14T02:09:12;4.90;;;1.05;;
15271;SDS011;7737;51.578;7.268;2023-03-14T02:11:38;6.53;;;1.35;;
15271;SDS011;7737;51.578;7.268;2023-03-14T02:14:05;7.82;;;1.60;;
15271;SDS011;7737;51.578;7.268;2023-03-14T02:16:39;6.40;;;1.55;;
15271;SDS011;7737;51.578;7.268;2023-03-14T02:19:06;5.60;;;1.10;;
15271;SDS011;7737;51.578;7.268;2023-03-14T02:21:38;4.18;;;1.15;;
15271;SDS011;7737;51.578;7.268;2023-03-14T02:24:17;4.80;;;1.10;;
15271;SDS011;7737;51.578;7.268;2023-03-14T02:27:11;5.80;;;1.52;;
15271;SDS011;7737;51.578;7.268;2023-03-14T02:29:41;3.42;;;0.93;;
15271;SDS011;7737;51.578;7.268;2023-03-14T02:32:14;6.25;;;1.45;;
15271;SDS011;7737;51.578;7.268;2023-03-14T02:34:42;5.93;;;1.23;;
15271;SDS011;7737;51.578;7.268;2023-03-14T02:37:14;4.55;;;1.20;;
15271;SDS011;7737;51.578;7.268;2023-03-14T02:39:44;5.70;;;1.10;;
15271;SDS011;7737;51.578;7.268;2023-03-14T02:42:15;6.57;;;1.50;;
15271;SDS011;7737;51.578;7.268;2023-03-14T02:44:49;6.68;;;1.20;;
15271;SDS011;7737;51.578;7.268;2023-03-14T02:47:18;7.07;;;1.40;;
15271;SDS011;7737;51.578;7.268;2023-03-14T02:49:46;5.35;;;1.33;;
15271;SDS011;7737;51.578;7.268;2023-03-14T02:52:13;4.22;;;1.40;;
15271;SDS011;7737;51.578;7.268;2023-03-14T02:54:39;5.57;;;1.30;;
15271;SDS011;7737;51.578;7.268;2023-03-14T02:57:06;4.80;;;1.30;;
15271;SDS011;7737;51.578;7.268;2023-03-14T02:59:33;6.38;;;1.25;;
15271;SDS011;7737;51.578;7.268;2023-03-14T03:02:00;6.03;;;1.20;;
15271;SDS011;7737;51.578;7.268;2023-03-14T03:04:26;7.80;;;1.25;;
15271;SDS011;7737;51.578;7.268;2023-03-14T03:06:53;4.72;;;1.63;;
15271;SDS011;7737;51.578;7.268;2023-03-14T03:09:19;5.45;;;1.15;;
15271;SDS011;7737;51.578;7.268;2023-03-14T03:11:46;8.63;;;1.25;;
15271;SDS011;7737;51.578;7.268;2023-03-14T03:14:12;6.63;;;1.50;;
15271;SDS011;7737;51.578;7.268;2023-03-14T03:16:40;5.93;;;1.55;;
15271;SDS011;7737;51.578;7.268;2023-03-14T03:19:07;5.50;;;1.63;;
15271;SDS011;7737;51.578;7.268;2023-03-14T03:21:33;5.28;;;1.25;;
15271;SDS011;7737;51.578;7.268;2023-03-14T03:24:00;6.18;;;1.50;;
15271;SDS011;7737;51.578;7.268;2023-03-14T03:26:27;5.30;;;1.40;;
15271;SDS011;7737;51.578;7.268;2023-03-14T03:28:53;9.00;;;1.85;;
15271;SDS011;7737;51.578;7.268;2023-03-14T03:31:20;6.88;;;1.40;;
15271;SDS011;7737;51.578;7.268;2023-03-14T03:33:48;6.75;;;1.63;;
15271;SDS011;7737;51.578;7.268;2023-03-14T03:36:15;4.90;;;1.50;;
15271;SDS011;7737;51.578;7.268;2023-03-14T03:38:46;6.72;;;1.58;;
15271;SDS011;7737;51.578;7.268;2023-03-14T03:41:12;9.50;;;1.90;;
15271;SDS011;7737;51.578;7.268;2023-03-14T03:43:39;7.80;;;1.40;;
15271;SDS011;7737;51.578;7.268;2023-03-14T03:46:06;4.72;;;1.27;;
15271;SDS011;7737;51.578;7.268;2023-03-14T03:48:33;5.85;;;1.45;;
15271;SDS011;7737;51.578;7.268;2023-03-14T03:51:02;6.70;;;1.20;;
15271;SDS011;7737;51.578;7.268;2023-03-14T03:53:29;4.78;;;1.30;;
15271;SDS011;7737;51.578;7.268;2023-03-14T03:55:55;5.53;;;1.45;;
15271;SDS011;7737;51.578;7.268;2023-03-14T03:58:22;5.30;;;1.20;;
15271;SDS011;7737;51.578;7.268;2023-03-14T04:00:48;7.22;;;1.40;;
15271;SDS011;7737;51.578;7.268;2023-03-14T04:03:15;6.70;;;1.25;;
15271;SDS011;7737;51.578;7.268;2023-03-14T04:05:41;5.95;;;1.25;;
15271;SDS011;7737;51.578;7.268;2023-03-14T04:08:09;6.57;;;1.40;;
15271;SDS011;7737;51.578;7.268;2023-03-14T04:10:36;8.02;;;1.40;;
15271;SDS011;7737;51.578;7.268;2023-03-14T04:13:02;7.30;;;1.63;;
15271;SDS011;7737;51.578;7.268;2023-03-14T04:15:29;6.60;;;1.58;;
15271;SDS011;7737;51.578;7.268;2023-03-14T04:17:57;5.97;;;1.35;;
15271;SDS011;7737;51.578;7.268;2023-03-14T04:20:24;8.80;;;1.60;;
15271;SDS011;7737;51.578;7.268;2023-03-14T04:22:51;5.13;;;1.80;;
15271;SDS011;7737;51.578;7.268;2023-03-14T04:25:19;7.18;;;1.77;;
15271;SDS011;7737;51.578;7.268;2023-03-14T04:27:46;5.88;;;1.40;;
15271;SDS011;7737;51.578;7.268;2023-03-14T04:30:13;4.57;;;1.27;;
15271;SDS011;7737;51.578;7.268;2023-03-14T04:32:39;5.57;;;1.42;;
15271;SDS011;7737;51.578;7.268;2023-03-14T04:35:06;6.32;;;1.60;;
15271;SDS011;7737;51.578;7.268;2023-03-14T04:37:33;3.60;;;1.25;;
15271;SDS011;7737;51.578;7.268;2023-03-14T04:40:00;4.72;;;1.27;;
15271;SDS011;7737;51.578;7.268;2023-03-14T04:42:28;5.60;;;1.00;;
15271;SDS011;7737;51.578;7.268;2023-03-14T04:44:54;3.10;;;0.80;;
15271;SDS011;7737;51.578;7.268;2023-03-14T04:47:21;4.05;;;0.93;;
15271;SDS011;7737;51.578;7.268;2023-03-14T04:49:47;3.00;;;0.85;;
15271;SDS011;7737;51.578;7.268;2023-03-14T04:52:14;3.90;;;0.68;;
15271;SDS011;7737;51.578;7.268;2023-03-14T04:54:40;3.63;;;0.90;;
15271;SDS011;7737;51.578;7.268;2023-03-14T04:57:07;2.00;;;0.77;;
15271;SDS011;7737;51.578;7.268;2023-03-14T04:59:34;2.42;;;0.88;;
15271;SDS011;7737;51.578;7.268;2023-03-14T05:02:01;1.35;;;0.60;;
15271;SDS011;7737;51.578;7.268;2023-03-14T05:04:28;3.22;;;0.60;;
15271;SDS011;7737;51.578;7.268;2023-03-14T05:06:57;2.03;;;0.52;;
15271;SDS011;7737;51.578;7.268;2023-03-14T05:09:24;3.33;;;0.77;;
15271;SDS011;7737;51.578;7.268;2023-03-14T05:11:50;1.27;;;0.40;;
15271;SDS011;7737;51.578;7.268;2023-03-14T05:14:17;2.20;;;0.50;;
15271;SDS011;7737;51.578;7.268;2023-03-14T05:16:45;0.98;;;0.30;;
15271;SDS011;7737;51.578;7.268;2023-03-14T05:19:12;1.08;;;0.47;;
15271;SDS011;7737;51.578;7.268;2023-03-14T05:21:39;2.17;;;0.30;;
15271;SDS011;7737;51.578;7.268;2023-03-14T05:24:05;1.23;;;0.40;;
15271;SDS011;7737;51.578;7.268;2023-03-14T05:26:32;0.60;;;0.38;;
15271;SDS011;7737;51.578;7.268;2023-03-14T05:28:58;0.90;;;0.40;;
15271;SDS011;7737;51.578;7.268;2023-03-14T05:31:25;1.63;;;0.52;;
15271;SDS011;7737;51.578;7.268;2023-03-14T05:33:52;1.52;;;0.47;;
15271;SDS011;7737;51.578;7.268;2023-03-14T05:36:19;2.40;;;0.50;;
15271;SDS011;7737;51.578;7.268;2023-03-14T05:38:45;2.80;;;0.52;;
15271;SDS011;7737;51.578;7.268;2023-03-14T05:41:12;1.13;;;0.50;;
15271;SDS011;7737;51.578;7.268;2023-03-14T05:43:39;0.77;;;0.30;;
15271;SDS011;7737;51.578;7.268;2023-03-14T05:46:06;1.50;;;0.40;;
15271;SDS011;7737;51.578;7.268;2023-03-14T05:48:32;2.05;;;0.70;;
15271;SDS011;7737;51.578;7.268;2023-03-14T05:51:00;1.70;;;0.57;;
15271;SDS011;7737;51.578;7.268;2023-03-14T05:53:27;1.55;;;0.45;;
15271;SDS011;7737;51.578;7.268;2023-03-14T05:55:54;1.60;;;0.68;;
15271;SDS011;7737;51.578;7.268;2023-03-14T05:58:21;1.05;;;0.40;;
15271;SDS011;7737;51.578;7.268;2023-03-14T06:00:48;2.13;;;0.50;;
15271;SDS011;7737;51.578;7.268;2023-03-14T06:03:15;1.88;;;0.50;;
15271;SDS011;7737;51.578;7.268;2023-03-14T06:05:41;1.55;;;0.60;;
15271;SDS011;7737;51.578;7.268;2023-03-14T06:08:09;1.40;;;0.65;;
15271;SDS011;7737;51.578;7.268;2023-03-14T06:10:36;2.15;;;0.50;;
15271;SDS011;7737;51.578;7.268;2023-03-14T06:13:02;1.50;;;0.60;;
15271;SDS011;7737;51.578;7.268;2023-03-14T06:15:29;1.08;;;0.60;;
15271;SDS011;7737;51.578;7.268;2023-03-14T06:17:57;3.75;;;1.00;;
15271;SDS011;7737;51.578;7.268;2023-03-14T06:20:24;2.55;;;1.20;;
15271;SDS011;7737;51.578;7.268;2023-03-14T06:22:50;3.55;;;1.70;;
15271;SDS011;7737;51.578;7.268;2023-03-14T06:25:18;4.65;;;2.60;;
15271;SDS011;7737;51.578;7.268;2023-03-14T06:27:45;3.08;;;2.30;;
15271;SDS011;7737;51.578;7.268;2023-03-14T06:30:12;5.03;;;2.67;;
15271;SDS011;7737;51.578;7.268;2023-03-14T06:32:38;3.58;;;2.60;;
15271;SDS011;7737;51.578;7.268;2023-03-14T06:35:05;4.90;;;2.80;;
15271;SDS011;7737;51.578;7.268;2023-03-14T06:37:32;4.10;;;2.50;;
15271;SDS011;7737;51.578;7.268;2023-03-14T06:39:58;4.07;;;2.30;;
15271;SDS011;7737;51.578;7.268;2023-03-14T06:42:26;3.60;;;2.20;;
15271;SDS011;7737;51.578;7.268;2023-03-14T06:44:53;4.18;;;2.10;;
15271;SDS011;7737;51.578;7.268;2023-03-14T06:47:19;5.93;;;2.15;;
15271;SDS011;7737;51.578;7.268;2023-03-14T06:49:46;4.45;;;2.20;;
15271;SDS011;7737;51.578;7.268;2023-03-14T06:52:12;5.88;;;2.20;;
15271;SDS011;7737;51.578;7.268;2023-03-14T06:54:39;5.10;;;2.45;;
15271;SDS011;7737;51.578;7.268;2023-03-14T06:57:05;4.18;;;2.30;;
15271;SDS011;7737;51.578;7.268;2023-03-14T06:59:33;3.55;;;1.80;;
15271;SDS011;7737;51.578;7.268;2023-03-14T07:02:00;3.92;;;1.90;;
15271;SDS011;7737;51.578;7.268;2023-03-14T07:04:26;2.33;;;1.75;;
15271;SDS011;7737;51.578;7.268;2023-03-14T07:06:53;2.67;;;2.00;;
15271;SDS011;7737;51.578;7.268;2023-03-14T07:09:20;3.00;;;1.92;;
15271;SDS011;7737;51.578;7.268;2023-03-14T07:11:46;5.68;;;3.30;;
15271;SDS011;7737;51.578;7.268;2023-03-14T07:14:13;6.00;;;3.92;;
15271;SDS011;7737;51.578;7.268;2023-03-14T07:16:41;5.10;;;3.20;;
15271;SDS011;7737;51.578;7.268;2023-03-14T07:19:07;2.83;;;1.58;;
15271;SDS011;7737;51.578;7.268;2023-03-14T07:21:34;2.42;;;1.25;;
15271;SDS011;7737;51.578;7.268;2023-03-14T07:24:00;3.28;;;2.20;;
15271;SDS011;7737;51.578;7.268;2023-03-14T07:26:27;2.20;;;0.98;;
15271;SDS011;7737;51.578;7.268;2023-03-14T07:28:53;4.18;;;1.73;;
15271;SDS011;7737;51.578;7.268;2023-03-14T07:31:20;3.38;;;1.10;;
15271;SDS011;7737;51.578;7.268;2023-03-14T07:33:48;2.55;;;1.30;;
15271;SDS011;7737;51.578;7.268;2023-03-14T07:36:14;2.17;;;0.90;;
15271;SDS011;7737;51.578;7.268;2023-03-14T07:38:41;1.48;;;0.90;;
15271;SDS011;7737;51.578;7.268;2023-03-14T07:41:08;2.72;;;0.80;;
15271;SDS011;7737;51.578;7.268;2023-03-14T07:43:34;1.25;;;0.80;;
15271;SDS011;7737;51.578;7.268;2023-03-14T07:46:01;3.78;;;2.67;;
15271;SDS011;7737;51.578;7.268;2023-03-14T07:48:28;2.33;;;1.70;;
15271;SDS011;7737;51.578;7.268;2023-03-14T07:50:56;7.20;;;4.95;;
15271;SDS011;7737;51.578;7.268;2023-03-14T07:53:23;2.72;;;2.20;;
15271;SDS011;7737;51.578;7.268;2023-03-14T07:55:50;1.80;;;1.52;;
15271;SDS011;7737;51.578;7.268;2023-03-14T07:58:17;1.60;;;1.17;;
15271;SDS011;7737;51.578;7.268;2023-03-14T08:00:44;3.28;;;1.80;;
15271;SDS011;7737;51.578;7.268;2023-03-14T08:03:10;3.47;;;1.48;;
15271;SDS011;7737;51.578;7.268;2023-03-14T08:05:37;1.35;;;1.10;;
15271;SDS011;7737;51.578;7.268;2023-03-14T08:08:06;2.05;;;1.50;;
15271;SDS011;7737;51.578;7.268;2023-03-14T08:10:32;1.85;;;1.50;;
15271;SDS011;7737;51.578;7.268;2023-03-14T08:12:59;1.30;;;0.73;;
15271;SDS011;7737;51.578;7.268;2023-03-14T08:15:27;1.48;;;0.90;;
15271;SDS011;7737;51.578;7.268;2023-03-14T08:17:55;1.58;;;0.90;;
15271;SDS011;7737;51.578;7.268;2023-03-14T08:20:23;1.45;;;0.70;;
15271;SDS011;7737;51.578;7.268;2023-03-14T08:22:51;1.80;;;0.90;;
15271;SDS011;7737;51.578;7.268;2023-03-14T08:25:19;1.85;;;0.80;;
15271;SDS011;7737;51.578;7.268;2023-03-14T08:27:46;1.77;;;0.93;;
15271;SDS011;7737;51.578;7.268;2023-03-14T08:30:13;2.22;;;1.10;;
15271;SDS011;7737;51.578;7.268;2023-03-14T08:32:41;1.92;;;1.20;;
15271;SDS011;7737;51.578;7.268;2023-03-14T08:35:08;1.40;;;1.30;;
15271;SDS011;7737;51.578;7.268;2023-03-14T08:47:28;1.67;;;1.17;;
15271;SDS011;7737;51.578;7.268;2023-03-14T08:49:54;1.00;;;1.00;;
15271;SDS011;7737;51.578;7.268;2023-03-14T08:52:21;1.52;;;1.30;;
15271;SDS011;7737;51.578;7.268;2023-03-14T08:54:48;1.55;;;1.40;;
15271;SDS011;7737;51.578;7.268;2023-03-14T08:57:14;1.10;;;1.00;;
15271;SDS011;7737;51.578;7.268;2023-03-14T08:59:41;2.20;;;1.20;;
15271;SDS011;7737;51.578;7.268;2023-03-14T09:02:08;1.73;;;1.00;;
15271;SDS011;7737;51.578;7.268;2023-03-14T09:04:37;1.85;;;1.10;;
15271;SDS011;7737;51.578;7.268;2023-03-14T09:07:04;1.20;;;1.10;;
15271;SDS011;7737;51.578;7.268;2023-03-14T09:09:30;1.42;;;1.05;;
15271;SDS011;7737;51.578;7.268;2023-03-14T09:11:57;1.15;;;0.98;;
15271;SDS011;7737;51.578;7.268;2023-03-14T09:14:23;2.17;;;1.25;;
15271;SDS011;7737;51.578;7.268;2023-03-14T09:16:50;2.03;;;1.17;;
15271;SDS011;7737;51.578;7.268;2023-03-14T09:19:17;1.50;;;1.40;;
15271;SDS011;7737;51.578;7.268;2023-03-14T09:21:45;1.83;;;1.42;;
15271;SDS011;7737;51.578;7.268;2023-03-14T09:24:11;1.77;;;1.00;;
15271;SDS011;7737;51.578;7.268;2023-03-14T09:26:38;1.67;;;0.90;;
15271;SDS011;7737;51.578;7.268;2023-03-14T09:29:04;1.23;;;1.13;;
15271;SDS011;7737;51.578;7.268;2023-03-14T09:31:31;1.23;;;1.00;;
15271;SDS011;7737;51.578;7.268;2023-03-14T09:33:57;1.58;;;1.23;;
15271;SDS011;7737;51.578;7.268;2023-03-14T09:36:24;1.65;;;1.10;;
15271;SDS011;7737;51.578;7.268;2023-03-14T09:38:52;4.78;;;1.38;;
15271;SDS011;7737;51.578;7.268;2023-03-14T09:41:21;2.25;;;2.05;;
15271;SDS011;7737;51.578;7.268;2023-03-14T09:46:38;1.65;;;0.65;;
15271;SDS011;7737;51.578;7.268;2023-03-14T09:49:08;1.17;;;0.90;;
15271;SDS011;7737;51.578;7.268;2023-03-14T09:51:37;1.63;;;0.52;;
15271;SDS011;7737;51.578;7.268;2023-03-14T09:54:08;0.88;;;0.50;;
15271;SDS011;7737;51.578;7.268;2023-03-14T09:56:48;1.67;;;0.50;;
15271;SDS011;7737;51.578;7.268;2023-03-14T09:59:14;1.17;;;0.50;;
15271;SDS011;7737;51.578;7.268;2023-03-14T10:01:41;0.88;;;0.40;;
15271;SDS011;7737;51.578;7.268;2023-03-14T10:04:10;1.65;;;0.60;;
15271;SDS011;7737;51.578;7.268;2023-03-14T10:06:41;0.85;;;0.57;;
15271;SDS011;7737;51.578;7.268;2023-03-14T10:09:09;0.60;;;0.60;;
15271;SDS011;7737;51.578;7.268;2023-03-14T10:11:41;0.52;;;0.43;;
15271;SDS011;7737;51.578;7.268;2023-03-14T10:14:08;1.60;;;0.60;;
15271;SDS011;7737;51.578;7.268;2023-03-14T10:16:40;0.95;;;0.52;;
15271;SDS011;7737;51.578;7.268;2023-03-14T10:19:09;0.95;;;0.50;;
15271;SDS011;7737;51.578;7.268;2023-03-14T10:21:37;1.20;;;0.43;;
15271;SDS011;7737;51.578;7.268;2023-03-14T10:24:10;0.82;;;0.40;;
15271;SDS011;7737;51.578;7.268;2023-03-14T10:26:47;1.95;;;0.70;;
15271;SDS011;7737;51.578;7.268;2023-03-14T10:29:15;2.38;;;0.50;;
15271;SDS011;7737;51.578;7.268;2023-03-14T10:31:50;2.17;;;0.63;;
15271;SDS011;7737;51.578;7.268;2023-03-14T10:34:21;1.02;;;0.50;;
15271;SDS011;7737;51.578;7.268;2023-03-14T10:36:53;1.58;;;0.68;;
15271;SDS011;7737;51.578;7.268;2023-03-14T10:39:24;1.65;;;0.68;;
15271;SDS011;7737;51.578;7.268;2023-03-14T10:41:54;2.83;;;1.10;;
15271;SDS011;7737;51.578;7.268;2023-03-14T10:44:23;2.25;;;1.48;;
15271;SDS011;7737;51.578;7.268;2023-03-14T10:46:55;1.85;;;0.77;;
15271;SDS011;7737;51.578;7.268;2023-03-14T10:49:25;1.33;;;0.50;;
15271;SDS011;7737;51.578;7.268;2023-03-14T10:51:54;1.48;;;0.50;;
15271;SDS011;7737;51.578;7.268;2023-03-14T10:54:21;2.30;;;0.70;;
15271;SDS011;7737;51.578;7.268;2023-03-14T10:56:57;1.63;;;0.90;;
15271;SDS011;7737;51.578;7.268;2023-03-14T10:59:25;1.50;;;0.80;;
15271;SDS011;7737;51.578;7.268;2023-03-14T11:01:55;2.80;;;1.50;;
15271;SDS011;7737;51.578;7.268;2023-03-14T11:04:30;2.13;;;1.50;;
15271;SDS011;7737;51.578;7.268;2023-03-14T11:07:12;1.80;;;0.85;;
15271;SDS011;7737;51.578;7.268;2023-03-14T11:09:45;1.23;;;0.60;;
15271;SDS011;7737;51.578;7.268;2023-03-14T11:12:31;1.75;;;0.60;;
15271;SDS011;7737;51.578;7.268;2023-03-14T11:15:05;0.98;;;0.50;;
15271;SDS011;7737;51.578;7.268;2023-03-14T11:17:41;0.60;;;0.30;;
15271;SDS011;7737;51.578;7.268;2023-03-14T11:20:23;2.08;;;0.60;;
15271;SDS011;7737;51.578;7.268;2023-03-14T11:22:59;2.15;;;0.40;;
15271;SDS011;7737;51.578;7.268;2023-03-14T11:25:35;1.50;;;0.60;;
15271;SDS011;7737;51.578;7.268;2023-03-14T11:28:13;0.73;;;0.30;;
15271;SDS011;7737;51.578;7.268;2023-03-14T11:30:48;1.98;;;0.50;;
15271;SDS011;7737;51.578;7.268;2023-03-14T11:33:18;1.58;;;0.35;;
15271;SDS011;7737;51.578;7.268;2023-03-14T11:35:52;1.27;;;0.40;;
15271;SDS011;7737;51.578;7.268;2023-03-14T11:38:27;0.80;;;0.40;;
15271;SDS011;7737;51.578;7.268;2023-03-14T11:40:57;1.02;;;0.40;;
15271;SDS011;7737;51.578;7.268;2023-03-14T11:43:27;1.00;;;0.50;;
15271;SDS011;7737;51.578;7.268;2023-03-14T11:45:57;1.27;;;0.52;;
15271;SDS011;7737;51.578;7.268;2023-03-14T11:48:31;0.52;;;0.30;;
15271;SDS011;7737;51.578;7.268;2023-03-14T11:51:06;1.40;;;0.60;;
15271;SDS011;7737;51.578;7.268;2023-03-14T11:53:40;1.08;;;0.40;;
15271;SDS011;7737;51.578;7.268;2023-03-14T11:56:16;1.65;;;0.50;;
15271;SDS011;7737;51.578;7.268;2023-03-14T11:58:50;2.17;;;0.50;;
15271;SDS011;7737;51.578;7.268;2023-03-14T12:01:21;4.07;;;0.65;;
15271;SDS011;7737;51.578;7.268;2023-03-14T12:03:54;2.78;;;0.52;;
15271;SDS011;7737;51.578;7.268;2023-03-14T12:06:27;3.00;;;0.60;;
15271;SDS011;7737;51.578;7.268;2023-03-14T12:08:59;1.35;;;0.50;;
15271;SDS011;7737;51.578;7.268;2023-03-14T12:11:31;3.50;;;0.70;;
15271;SDS011;7737;51.578;7.268;2023-03-14T12:14:03;1.55;;;0.52;;
15271;SDS011;7737;51.578;7.268;2023-03-14T12:16:45;3.72;;;1.02;;
15271;SDS011;7737;51.578;7.268;2023-03-14T12:21:57;4.07;;;0.80;;
15271;SDS011;7737;51.578;7.268;2023-03-14T12:24:28;1.85;;;0.68;;
15271;SDS011;7737;51.578;7.268;2023-03-14T12:26:57;2.15;;;0.82;;
15271;SDS011;7737;51.578;7.268;2023-03-14T12:29:26;5.70;;;0.82;;
15271;SDS011;7737;51.578;7.268;2023-03-14T12:32:07;1.45;;;0.55;;
15271;SDS011;7737;51.578;7.268;2023-03-14T12:34:40;3.55;;;0.82;;
15271;SDS011;7737;51.578;7.268;2023-03-14T12:37:14;4.35;;;0.80;;
15271;SDS011;7737;51.578;7.268;2023-03-14T12:42:44;5.43;;;0.80;;
15271;SDS011;7737;51.578;7.268;2023-03-14T12:45:26;3.88;;;1.20;;
15271;SDS011;7737;51.578;7.268;2023-03-14T12:48:02;6.07;;;0.77;;
15271;SDS011;7737;51.578;7.268;2023-03-14T12:50:36;5.82;;;1.10;;
15271;SDS011;7737;51.578;7.268;2023-03-14T12:59:14;8.55;;;1.52;;
15271;SDS011;7737;51.578;7.268;2023-03-14T13:01:54;7.40;;;1.30;;
15271;SDS011;7737;51.578;7.268;2023-03-14T13:04:26;7.82;;;1.67;;
15271;SDS011;7737;51.578;7.268;2023-03-14T13:06:56;6.03;;;1.63;;
15271;SDS011;7737;51.578;7.268;2023-03-14T13:12:29;7.88;;;1.58;;
15271;SDS011;7737;51.578;7.268;2023-03-14T13:15:03;8.00;;;1.77;;
15271;SDS011;7737;51.578;7.268;2023-03-14T13:17:45;9.80;;;1.70;;
15271;SDS011;7737;51.578;7.268;2023-03-14T13:20:14;10.48;;;2.08;;
15271;SDS011;7737;51.578;7.268;2023-03-14T13:22:46;9.57;;;2.03;;
15271;SDS011;7737;51.578;7.268;2023-03-14T13:25:14;11.27;;;1.73;;
15271;SDS011;7737;51.578;7.268;2023-03-14T13:27:43;10.65;;;1.90;;
15271;SDS011;7737;51.578;7.268;2023-03-14T13:30:17;10.38;;;1.80;;
15271;SDS011;7737;51.578;7.268;2023-03-14T13:32:49;9.07;;;2.03;;
15271;SDS011;7737;51.578;7.268;2023-03-14T13:35:18;14.32;;;2.28;;
15271;SDS011;7737;51.578;7.268;2023-03-14T13:37:51;12.98;;;2.17;;
15271;SDS011;7737;51.578;7.268;2023-03-14T13:40:23;10.55;;;2.22;;
15271;SDS011;7737;51.578;7.268;2023-03-14T13:42:59;12.35;;;2.15;;
15271;SDS011;7737;51.578;7.268;2023-03-14T13:45:28;12.60;;;2.25;;
15271;SDS011;7737;51.578;7.268;2023-03-14T13:47:56;14.13;;;2.40;;
15271;SDS011;7737;51.578;7.268;2023-03-14T13:50:23;9.73;;;2.58;;
15271;SDS011;7737;51.578;7.268;2023-03-14T13:52:54;12.95;;;2.50;;
15271;SDS011;7737;51.578;7.268;2023-03-14T13:55:22;13.65;;;2.88;;
15271;SDS011;7737;51.578;7.268;2023-03-14T13:57:49;11.77;;;2.35;;
15271;SDS011;7737;51.578;7.268;2023-03-14T14:00:20;16.63;;;2.88;;
15271;SDS011;7737;51.578;7.268;2023-03-14T14:02:51;16.15;;;3.05;;
15271;SDS011;7737;51.578;7.268;2023-03-14T14:05:20;14.07;;;2.60;;
15271;SDS011;7737;51.578;7.268;2023-03-14T14:07:48;13.38;;;2.35;;
15271;SDS011;7737;51.578;7.268;2023-03-14T14:10:16;13.15;;;3.05;;
15271;SDS011;7737;51.578;7.268;2023-03-14T14:12:45;12.13;;;2.92;;
15271;SDS011;7737;51.578;7.268;2023-03-14T14:15:17;14.02;;;3.22;;
15271;SDS011;7737;51.578;7.268;2023-03-14T14:17:47;9.77;;;2.70;;
15271;SDS011;7737;51.578;7.268;2023-03-14T14:20:21;13.02;;;2.58;;
15271;SDS011;7737;51.578;7.268;2023-03-14T14:22:56;10.40;;;2.40;;
15271;SDS011;7737;51.578;7.268;2023-03-14T14:25:23;9.40;;;2.55;;
15271;SDS011;7737;51.578;7.268;2023-03-14T14:27:50;13.73;;;2.45;;
15271;SDS011;7737;51.578;7.268;2023-03-14T14:30:31;10.07;;;1.95;;
15271;SDS011;7737;51.578;7.268;2023-03-14T14:33:12;10.27;;;2.08;;
15271;SDS011;7737;51.578;7.268;2023-03-14T14:35:51;10.15;;;2.15;;
15271;SDS011;7737;51.578;7.268;2023-03-14T14:38:20;10.10;;;1.85;;
15271;SDS011;7737;51.578;7.268;2023-03-14T14:40:48;11.07;;;2.10;;
15271;SDS011;7737;51.578;7.268;2023-03-14T14:43:17;7.97;;;1.70;;
15271;SDS011;7737;51.578;7.268;2023-03-14T14:45:45;13.57;;;1.90;;
15271;SDS011;7737;51.578;7.268;2023-03-14T14:48:17;6.80;;;2.00;;
15271;SDS011;7737;51.578;7.268;2023-03-14T14:50:54;5.35;;;1.50;;
15271;SDS011;7737;51.578;7.268;2023-03-14T14:53:23;6.53;;;1.42;;
15271;SDS011;7737;51.578;7.268;2023-03-14T14:55:53;7.63;;;1.63;;
15271;SDS011;7737;51.578;7.268;2023-03-14T14:58:23;10.35;;;1.73;;
15271;SDS011;7737;51.578;7.268;2023-03-14T15:00:53;6.82;;;1.90;;
15271;SDS011;7737;51.578;7.268;2023-03-14T15:03:23;8.93;;;1.40;;
15271;SDS011;7737;51.578;7.268;2023-03-14T15:05:54;8.60;;;1.85;;
15271;SDS011;7737;51.578;7.268;2023-03-14T15:08:21;5.65;;;1.90;;
15271;SDS011;7737;51.578;7.268;2023-03-14T15:10:47;12.15;;;2.20;;
15271;SDS011;7737;51.578;7.268;2023-03-14T15:13:14;13.32;;;1.80;;
15271;SDS011;7737;51.578;7.268;2023-03-14T15:15:41;7.82;;;1.80;;
15271;SDS011;7737;51.578;7.268;2023-03-14T15:18:10;9.63;;;1.67;;
15271;SDS011;7737;51.578;7.268;2023-03-14T15:20:39;12.73;;;1.90;;
15271;SDS011;7737;51.578;7.268;2023-03-14T15:23:09;6.80;;;1.52;;
15271;SDS011;7737;51.578;7.268;2023-03-14T15:25:37;6.35;;;1.67;;
15271;SDS011;7737;51.578;7.268;2023-03-14T15:28:07;5.18;;;1.50;;
15271;SDS011;7737;51.578;7.268;2023-03-14T15:30:41;6.75;;;1.50;;
15271;SDS011;7737;51.578;7.268;2023-03-14T15:33:09;7.05;;;1.42;;
15271;SDS011;7737;51.578;7.268;2023-03-14T15:35:35;4.15;;;1.45;;
15271;SDS011;7737;51.578;7.268;2023-03-14T15:38:02;5.35;;;1.40;;
15271;SDS011;7737;51.578;7.268;2023-03-14T15:40:30;5.97;;;1.45;;